sensor_id;sensor_type;location;lat;lon;timestamp;P1;durP1;ratioP1;P2;durP2;ratioP2
33824;SDS011;20127;48.962;8.342;2023-08-24T00:02:24;10.98;;;9.40;;
33824;SDS011;20127;48.962;8.342;2023-08-24T00:05:27;11.48;;;8.60;;
33824;SDS011;20127;48.962;8.342;2023-08-24T00:08:28;9.68;;;8.68;;
33824;SDS011;20127;48.962;8.342;2023-08-24T00:11:31;9.57;;;8.68;;
33824;SDS011;20127;48.962;8.342;2023-08-24T00:14:33;8.80;;;8.10;;
33824;SDS011;20127;48.962;8.342;2023-08-24T00:17:35;9.77;;;7.78;;
33824;SDS011;20127;48.962;8.342;2023-08-24T00:20:37;10.10;;;7.85;;
33824;SDS011;20127;48.962;8.342;2023-08-24T00:23:38;9.25;;;8.55;;
33824;SDS011;20127;48.962;8.342;2023-08-24T00:26:41;8.65;;;7.75;;
33824;SDS011;20127;48.962;8.342;2023-08-24T00:29:43;10.45;;;9.05;;
33824;SDS011;20127;48.962;8.342;2023-08-24T00:32:45;8.50;;;7.43;;
33824;SDS011;20127;48.962;8.342;2023-08-24T00:35:46;8.70;;;7.80;;
33824;SDS011;20127;48.962;8.342;2023-08-24T00:38:48;8.38;;;7.68;;
33824;SDS011;20127;48.962;8.342;2023-08-24T00:41:52;9.80;;;7.63;;
33824;SDS011;20127;48.962;8.342;2023-08-24T00:44:54;7.93;;;7.18;;
33824;SDS011;20127;48.962;8.342;2023-08-24T00:47:56;9.35;;;8.40;;
33824;SDS011;20127;48.962;8.342;2023-08-24T00:50:59;7.50;;;6.65;;
33824;SDS011;20127;48.962;8.342;2023-08-24T00:54:01;7.28;;;6.57;;
33824;SDS011;20127;48.962;8.342;2023-08-24T00:57:05;9.27;;;8.27;;
33824;SDS011;20127;48.962;8.342;2023-08-24T01:00:07;7.20;;;6.55;;
33824;SDS011;20127;48.962;8.342;2023-08-24T01:03:10;11.35;;;8.35;;
33824;SDS011;20127;48.962;8.342;2023-08-24T01:06:11;8.60;;;7.93;;
33824;SDS011;20127;48.962;8.342;2023-08-24T01:09:13;6.72;;;6.22;;
33824;SDS011;20127;48.962;8.342;2023-08-24T01:12:19;7.07;;;6.47;;
33824;SDS011;20127;48.962;8.342;2023-08-24T01:15:37;7.80;;;7.07;;
33824;SDS011;20127;48.962;8.342;2023-08-24T01:18:44;8.68;;;6.57;;
33824;SDS011;20127;48.962;8.342;2023-08-24T01:21:47;7.47;;;6.78;;
33824;SDS011;20127;48.962;8.342;2023-08-24T01:24:52;9.07;;;7.13;;
33824;SDS011;20127;48.962;8.342;2023-08-24T01:28:02;8.35;;;6.45;;
33824;SDS011;20127;48.962;8.342;2023-08-24T01:31:06;8.80;;;6.88;;
33824;SDS011;20127;48.962;8.342;2023-08-24T01:34:08;7.35;;;6.57;;
33824;SDS011;20127;48.962;8.342;2023-08-24T01:37:10;8.55;;;6.60;;
33824;SDS011;20127;48.962;8.342;2023-08-24T01:40:13;11.90;;;6.50;;
33824;SDS011;20127;48.962;8.342;2023-08-24T01:43:21;7.70;;;6.70;;
33824;SDS011;20127;48.962;8.342;2023-08-24T01:46:26;7.63;;;6.80;;
33824;SDS011;20127;48.962;8.342;2023-08-24T01:49:29;11.27;;;6.45;;
33824;SDS011;20127;48.962;8.342;2023-08-24T01:52:32;9.30;;;6.90;;
33824;SDS011;20127;48.962;8.342;2023-08-24T01:55:35;28.67;;;8.27;;
33824;SDS011;20127;48.962;8.342;2023-08-24T01:58:38;11.73;;;7.28;;
33824;SDS011;20127;48.962;8.342;2023-08-24T02:01:40;7.07;;;6.45;;
33824;SDS011;20127;48.962;8.342;2023-08-24T02:04:42;6.97;;;6.28;;
33824;SDS011;20127;48.962;8.342;2023-08-24T02:07:43;6.80;;;6.30;;
33824;SDS011;20127;48.962;8.342;2023-08-24T02:10:45;6.80;;;5.97;;
33824;SDS011;20127;48.962;8.342;2023-08-24T02:13:48;6.10;;;5.60;;
33824;SDS011;20127;48.962;8.342;2023-08-24T02:16:50;6.82;;;6.22;;
33824;SDS011;20127;48.962;8.342;2023-08-24T02:19:51;10.13;;;5.97;;
33824;SDS011;20127;48.962;8.342;2023-08-24T02:22:53;8.00;;;6.55;;
33824;SDS011;20127;48.962;8.342;2023-08-24T02:25:56;8.18;;;6.75;;
33824;SDS011;20127;48.962;8.342;2023-08-24T02:28:59;8.52;;;6.38;;
33824;SDS011;20127;48.962;8.342;2023-08-24T02:32:00;8.85;;;6.50;;
33824;SDS011;20127;48.962;8.342;2023-08-24T02:35:02;11.40;;;7.93;;
33824;SDS011;20127;48.962;8.342;2023-08-24T02:38:05;7.82;;;6.90;;
33824;SDS011;20127;48.962;8.342;2023-08-24T02:41:07;11.85;;;6.53;;
33824;SDS011;20127;48.962;8.342;2023-08-24T02:44:12;9.48;;;6.55;;
33824;SDS011;20127;48.962;8.342;2023-08-24T02:47:13;5.53;;;5.13;;
33824;SDS011;20127;48.962;8.342;2023-08-24T02:50:15;8.48;;;6.55;;
33824;SDS011;20127;48.962;8.342;2023-08-24T02:53:17;7.60;;;6.97;;
33824;SDS011;20127;48.962;8.342;2023-08-24T02:56:19;11.40;;;6.90;;
33824;SDS011;20127;48.962;8.342;2023-08-24T02:59:22;6.55;;;5.78;;
33824;SDS011;20127;48.962;8.342;2023-08-24T03:02:23;5.93;;;5.43;;
33824;SDS011;20127;48.962;8.342;2023-08-24T03:05:25;7.82;;;6.47;;
33824;SDS011;20127;48.962;8.342;2023-08-24T03:08:27;6.68;;;5.97;;
33824;SDS011;20127;48.962;8.342;2023-08-24T03:11:29;7.25;;;6.65;;
33824;SDS011;20127;48.962;8.342;2023-08-24T03:14:32;9.95;;;6.80;;
33824;SDS011;20127;48.962;8.342;2023-08-24T03:17:34;7.03;;;6.22;;
33824;SDS011;20127;48.962;8.342;2023-08-24T03:20:35;7.30;;;6.38;;
33824;SDS011;20127;48.962;8.342;2023-08-24T03:23:37;7.82;;;6.80;;
33824;SDS011;20127;48.962;8.342;2023-08-24T03:26:39;11.52;;;6.90;;
33824;SDS011;20127;48.962;8.342;2023-08-24T03:29:42;6.75;;;5.38;;
33824;SDS011;20127;48.962;8.342;2023-08-24T03:32:44;6.97;;;6.22;;
33824;SDS011;20127;48.962;8.342;2023-08-24T03:35:45;6.90;;;6.20;;
33824;SDS011;20127;48.962;8.342;2023-08-24T03:38:47;7.38;;;6.68;;
33824;SDS011;20127;48.962;8.342;2023-08-24T03:41:49;10.88;;;6.38;;
33824;SDS011;20127;48.962;8.342;2023-08-24T03:44:52;10.60;;;7.00;;
33824;SDS011;20127;48.962;8.342;2023-08-24T03:47:53;11.40;;;6.57;;
33824;SDS011;20127;48.962;8.342;2023-08-24T03:50:55;9.20;;;6.22;;
33824;SDS011;20127;48.962;8.342;2023-08-24T03:53:57;7.53;;;6.55;;
33824;SDS011;20127;48.962;8.342;2023-08-24T03:56:59;7.38;;;6.68;;
33824;SDS011;20127;48.962;8.342;2023-08-24T04:00:03;8.52;;;7.05;;
33824;SDS011;20127;48.962;8.342;2023-08-24T04:03:07;6.93;;;6.32;;
33824;SDS011;20127;48.962;8.342;2023-08-24T04:06:09;7.57;;;6.35;;
33824;SDS011;20127;48.962;8.342;2023-08-24T04:09:11;8.15;;;7.05;;
33824;SDS011;20127;48.962;8.342;2023-08-24T04:12:12;7.53;;;6.75;;
33824;SDS011;20127;48.962;8.342;2023-08-24T04:15:16;8.50;;;7.05;;
33824;SDS011;20127;48.962;8.342;2023-08-24T04:18:17;9.98;;;7.15;;
33824;SDS011;20127;48.962;8.342;2023-08-24T04:21:19;7.55;;;6.65;;
33824;SDS011;20127;48.962;8.342;2023-08-24T04:24:20;7.00;;;6.40;;
33824;SDS011;20127;48.962;8.342;2023-08-24T04:27:25;9.77;;;6.57;;
33824;SDS011;20127;48.962;8.342;2023-08-24T04:30:28;8.07;;;6.68;;
33824;SDS011;20127;48.962;8.342;2023-08-24T04:33:29;9.00;;;6.72;;
33824;SDS011;20127;48.962;8.342;2023-08-24T04:36:31;7.88;;;6.90;;
33824;SDS011;20127;48.962;8.342;2023-08-24T04:39:33;7.78;;;6.43;;
33824;SDS011;20127;48.962;8.342;2023-08-24T04:42:35;7.00;;;6.30;;
33824;SDS011;20127;48.962;8.342;2023-08-24T04:45:38;7.72;;;5.75;;
33824;SDS011;20127;48.962;8.342;2023-08-24T04:48:39;7.18;;;6.15;;
33824;SDS011;20127;48.962;8.342;2023-08-24T04:51:41;6.45;;;5.88;;
33824;SDS011;20127;48.962;8.342;2023-08-24T04:54:43;10.35;;;5.15;;
33824;SDS011;20127;48.962;8.342;2023-08-24T04:57:44;7.65;;;5.93;;
33824;SDS011;20127;48.962;8.342;2023-08-24T05:00:48;6.78;;;6.05;;
33824;SDS011;20127;48.962;8.342;2023-08-24T05:03:49;8.02;;;5.72;;
33824;SDS011;20127;48.962;8.342;2023-08-24T05:06:51;6.95;;;5.72;;
33824;SDS011;20127;48.962;8.342;2023-08-24T05:09:53;6.28;;;5.25;;
33824;SDS011;20127;48.962;8.342;2023-08-24T05:12:55;6.35;;;5.63;;
33824;SDS011;20127;48.962;8.342;2023-08-24T05:15:58;6.80;;;6.10;;
33824;SDS011;20127;48.962;8.342;2023-08-24T05:18:59;6.00;;;5.40;;
33824;SDS011;20127;48.962;8.342;2023-08-24T05:22:03;5.28;;;4.75;;
33824;SDS011;20127;48.962;8.342;2023-08-24T05:25:05;5.97;;;5.28;;
33824;SDS011;20127;48.962;8.342;2023-08-24T05:28:07;7.38;;;5.65;;
33824;SDS011;20127;48.962;8.342;2023-08-24T05:31:10;6.18;;;5.38;;
33824;SDS011;20127;48.962;8.342;2023-08-24T05:34:12;5.85;;;5.25;;
33824;SDS011;20127;48.962;8.342;2023-08-24T05:37:13;5.72;;;4.97;;
33824;SDS011;20127;48.962;8.342;2023-08-24T05:40:15;5.40;;;5.00;;
33824;SDS011;20127;48.962;8.342;2023-08-24T05:43:17;6.03;;;5.13;;
33824;SDS011;20127;48.962;8.342;2023-08-24T05:46:20;6.72;;;5.28;;
33824;SDS011;20127;48.962;8.342;2023-08-24T05:49:21;6.32;;;5.30;;
33824;SDS011;20127;48.962;8.342;2023-08-24T05:52:23;6.03;;;5.43;;
33824;SDS011;20127;48.962;8.342;2023-08-24T05:55:25;6.15;;;4.22;;
33824;SDS011;20127;48.962;8.342;2023-08-24T05:58:27;6.53;;;5.85;;
33824;SDS011;20127;48.962;8.342;2023-08-24T06:01:30;5.90;;;5.30;;
33824;SDS011;20127;48.962;8.342;2023-08-24T06:04:31;9.95;;;5.53;;
33824;SDS011;20127;48.962;8.342;2023-08-24T06:07:33;7.20;;;6.00;;
33824;SDS011;20127;48.962;8.342;2023-08-24T06:10:36;4.70;;;4.28;;
33824;SDS011;20127;48.962;8.342;2023-08-24T06:13:39;5.68;;;4.82;;
33824;SDS011;20127;48.962;8.342;2023-08-24T06:16:42;6.22;;;5.60;;
33824;SDS011;20127;48.962;8.342;2023-08-24T06:19:43;6.20;;;5.32;;
33824;SDS011;20127;48.962;8.342;2023-08-24T06:22:45;8.05;;;5.28;;
33824;SDS011;20127;48.962;8.342;2023-08-24T06:25:47;6.70;;;5.00;;
33824;SDS011;20127;48.962;8.342;2023-08-24T06:28:49;6.57;;;5.13;;
33824;SDS011;20127;48.962;8.342;2023-08-24T06:31:52;5.30;;;4.80;;
33824;SDS011;20127;48.962;8.342;2023-08-24T06:34:54;5.38;;;4.97;;
33824;SDS011;20127;48.962;8.342;2023-08-24T06:37:55;8.38;;;4.47;;
33824;SDS011;20127;48.962;8.342;2023-08-24T06:40:57;8.52;;;4.93;;
33824;SDS011;20127;48.962;8.342;2023-08-24T06:43:59;4.20;;;3.80;;
33824;SDS011;20127;48.962;8.342;2023-08-24T06:47:02;3.83;;;3.53;;
33824;SDS011;20127;48.962;8.342;2023-08-24T06:50:05;4.50;;;4.10;;
33824;SDS011;20127;48.962;8.342;2023-08-24T06:53:07;5.78;;;3.85;;
33824;SDS011;20127;48.962;8.342;2023-08-24T06:56:33;3.72;;;3.40;;
33824;SDS011;20127;48.962;8.342;2023-08-24T07:03:39;7.07;;;3.67;;
33824;SDS011;20127;48.962;8.342;2023-08-24T07:06:42;10.32;;;4.05;;
33824;SDS011;20127;48.962;8.342;2023-08-24T07:10:05;7.40;;;3.35;;
33824;SDS011;20127;48.962;8.342;2023-08-24T07:13:07;7.07;;;3.63;;
33824;SDS011;20127;48.962;8.342;2023-08-24T07:16:09;7.43;;;4.00;;
33824;SDS011;20127;48.962;8.342;2023-08-24T07:19:12;9.77;;;4.35;;
33824;SDS011;20127;48.962;8.342;2023-08-24T07:22:14;7.45;;;3.17;;
33824;SDS011;20127;48.962;8.342;2023-08-24T07:25:16;5.50;;;4.38;;
33824;SDS011;20127;48.962;8.342;2023-08-24T07:28:19;7.70;;;3.45;;
33824;SDS011;20127;48.962;8.342;2023-08-24T07:31:20;5.60;;;4.75;;
33824;SDS011;20127;48.962;8.342;2023-08-24T07:34:23;5.82;;;3.45;;
33824;SDS011;20127;48.962;8.342;2023-08-24T07:37:25;4.35;;;3.22;;
33824;SDS011;20127;48.962;8.342;2023-08-24T07:40:27;8.43;;;2.95;;
33824;SDS011;20127;48.962;8.342;2023-08-24T07:43:29;2.70;;;2.40;;
33824;SDS011;20127;48.962;8.342;2023-08-24T07:46:30;3.55;;;2.95;;
33824;SDS011;20127;48.962;8.342;2023-08-24T07:49:33;3.92;;;3.53;;
33824;SDS011;20127;48.962;8.342;2023-08-24T07:52:36;2.95;;;2.67;;
33824;SDS011;20127;48.962;8.342;2023-08-24T07:55:38;9.18;;;2.88;;
33824;SDS011;20127;48.962;8.342;2023-08-24T07:58:40;2.90;;;2.45;;
33824;SDS011;20127;48.962;8.342;2023-08-24T08:01:42;5.50;;;3.10;;
33824;SDS011;20127;48.962;8.342;2023-08-24T08:04:45;6.57;;;5.60;;
33824;SDS011;20127;48.962;8.342;2023-08-24T08:07:46;4.43;;;3.08;;
33824;SDS011;20127;48.962;8.342;2023-08-24T08:10:55;10.25;;;3.60;;
33824;SDS011;20127;48.962;8.342;2023-08-24T08:13:59;4.65;;;2.65;;
33824;SDS011;20127;48.962;8.342;2023-08-24T08:17:01;3.28;;;2.97;;
33824;SDS011;20127;48.962;8.342;2023-08-24T08:20:05;5.95;;;3.28;;
33824;SDS011;20127;48.962;8.342;2023-08-24T08:23:07;2.97;;;2.53;;
33824;SDS011;20127;48.962;8.342;2023-08-24T08:26:09;6.10;;;2.65;;
33824;SDS011;20127;48.962;8.342;2023-08-24T08:29:12;4.72;;;3.03;;
33824;SDS011;20127;48.962;8.342;2023-08-24T08:32:13;3.83;;;2.60;;
33824;SDS011;20127;48.962;8.342;2023-08-24T08:35:16;3.50;;;3.00;;
33824;SDS011;20127;48.962;8.342;2023-08-24T08:38:18;4.95;;;2.90;;
33824;SDS011;20127;48.962;8.342;2023-08-24T08:41:22;4.30;;;2.95;;
33824;SDS011;20127;48.962;8.342;2023-08-24T08:44:30;8.02;;;2.88;;
33824;SDS011;20127;48.962;8.342;2023-08-24T08:47:32;9.73;;;2.90;;
33824;SDS011;20127;48.962;8.342;2023-08-24T08:50:36;7.25;;;2.97;;
33824;SDS011;20127;48.962;8.342;2023-08-24T08:53:38;3.63;;;3.15;;
33824;SDS011;20127;48.962;8.342;2023-08-24T08:56:40;3.88;;;3.53;;
33824;SDS011;20127;48.962;8.342;2023-08-24T08:59:41;4.70;;;4.05;;
33824;SDS011;20127;48.962;8.342;2023-08-24T09:02:43;3.67;;;3.22;;
33824;SDS011;20127;48.962;8.342;2023-08-24T09:05:48;4.90;;;3.25;;
33824;SDS011;20127;48.962;8.342;2023-08-24T09:08:50;6.57;;;3.80;;
33824;SDS011;20127;48.962;8.342;2023-08-24T09:11:53;10.00;;;3.42;;
33824;SDS011;20127;48.962;8.342;2023-08-24T09:14:55;4.03;;;2.83;;
33824;SDS011;20127;48.962;8.342;2023-08-24T09:17:56;5.20;;;2.88;;
33824;SDS011;20127;48.962;8.342;2023-08-24T09:21:00;5.63;;;3.50;;
33824;SDS011;20127;48.962;8.342;2023-08-24T09:24:09;6.60;;;2.85;;
33824;SDS011;20127;48.962;8.342;2023-08-24T09:27:15;4.53;;;4.13;;
33824;SDS011;20127;48.962;8.342;2023-08-24T09:30:18;4.72;;;3.40;;
33824;SDS011;20127;48.962;8.342;2023-08-24T09:33:19;3.40;;;3.08;;
33824;SDS011;20127;48.962;8.342;2023-08-24T09:36:26;6.20;;;3.50;;
33824;SDS011;20127;48.962;8.342;2023-08-24T09:39:28;5.90;;;3.70;;
33824;SDS011;20127;48.962;8.342;2023-08-24T09:42:29;8.70;;;3.95;;
33824;SDS011;20127;48.962;8.342;2023-08-24T09:45:32;4.45;;;4.05;;
33824;SDS011;20127;48.962;8.342;2023-08-24T09:48:34;4.57;;;3.00;;
33824;SDS011;20127;48.962;8.342;2023-08-24T09:51:38;5.97;;;3.78;;
33824;SDS011;20127;48.962;8.342;2023-08-24T09:54:41;7.82;;;3.63;;
33824;SDS011;20127;48.962;8.342;2023-08-24T09:57:44;6.43;;;3.58;;
33824;SDS011;20127;48.962;8.342;2023-08-24T10:00:47;5.68;;;3.92;;
33824;SDS011;20127;48.962;8.342;2023-08-24T10:03:50;4.07;;;3.53;;
33824;SDS011;20127;48.962;8.342;2023-08-24T10:06:55;7.28;;;3.92;;
33824;SDS011;20127;48.962;8.342;2023-08-24T10:10:00;6.22;;;5.15;;
33824;SDS011;20127;48.962;8.342;2023-08-24T10:13:06;9.15;;;3.92;;
33824;SDS011;20127;48.962;8.342;2023-08-24T10:16:12;7.72;;;2.92;;
33824;SDS011;20127;48.962;8.342;2023-08-24T10:19:15;12.70;;;4.63;;
33824;SDS011;20127;48.962;8.342;2023-08-24T10:22:19;5.03;;;3.63;;
33824;SDS011;20127;48.962;8.342;2023-08-24T10:25:21;4.00;;;3.63;;
33824;SDS011;20127;48.962;8.342;2023-08-24T10:28:24;9.07;;;4.85;;
33824;SDS011;20127;48.962;8.342;2023-08-24T10:31:27;7.68;;;4.07;;
33824;SDS011;20127;48.962;8.342;2023-08-24T10:34:29;5.13;;;4.30;;
33824;SDS011;20127;48.962;8.342;2023-08-24T10:37:32;4.28;;;3.58;;
33824;SDS011;20127;48.962;8.342;2023-08-24T10:40:35;10.40;;;3.88;;
33824;SDS011;20127;48.962;8.342;2023-08-24T10:43:39;4.93;;;4.30;;
33824;SDS011;20127;48.962;8.342;2023-08-24T10:46:41;8.27;;;4.55;;
33824;SDS011;20127;48.962;8.342;2023-08-24T10:49:43;4.40;;;4.00;;
33824;SDS011;20127;48.962;8.342;2023-08-24T10:52:47;6.38;;;3.38;;
33824;SDS011;20127;48.962;8.342;2023-08-24T10:55:49;6.07;;;4.32;;
33824;SDS011;20127;48.962;8.342;2023-08-24T10:59:12;8.43;;;4.28;;
33824;SDS011;20127;48.962;8.342;2023-08-24T11:02:17;8.15;;;3.80;;
33824;SDS011;20127;48.962;8.342;2023-08-24T11:05:20;6.78;;;5.18;;
33824;SDS011;20127;48.962;8.342;2023-08-24T11:11:55;4.28;;;3.88;;
33824;SDS011;20127;48.962;8.342;2023-08-24T11:15:00;5.53;;;4.18;;
33824;SDS011;20127;48.962;8.342;2023-08-24T11:18:13;5.50;;;3.92;;
33824;SDS011;20127;48.962;8.342;2023-08-24T11:25:11;5.20;;;3.75;;
33824;SDS011;20127;48.962;8.342;2023-08-24T11:28:17;6.20;;;3.90;;
33824;SDS011;20127;48.962;8.342;2023-08-24T11:31:21;8.35;;;4.45;;
33824;SDS011;20127;48.962;8.342;2023-08-24T11:34:23;5.05;;;4.53;;
33824;SDS011;20127;48.962;8.342;2023-08-24T11:37:25;8.27;;;4.90;;
33824;SDS011;20127;48.962;8.342;2023-08-24T11:40:28;4.50;;;3.95;;
33824;SDS011;20127;48.962;8.342;2023-08-24T11:43:30;7.50;;;4.68;;
33824;SDS011;20127;48.962;8.342;2023-08-24T11:46:32;5.63;;;5.15;;
33824;SDS011;20127;48.962;8.342;2023-08-24T11:49:34;9.15;;;4.60;;
33824;SDS011;20127;48.962;8.342;2023-08-24T11:52:38;6.57;;;4.47;;
33824;SDS011;20127;48.962;8.342;2023-08-24T11:55:41;5.93;;;4.72;;
33824;SDS011;20127;48.962;8.342;2023-08-24T11:58:45;8.48;;;4.43;;
33824;SDS011;20127;48.962;8.342;2023-08-24T12:01:49;6.33;;;3.70;;
33824;SDS011;20127;48.962;8.342;2023-08-24T12:04:52;5.35;;;4.38;;
33824;SDS011;20127;48.962;8.342;2023-08-24T12:07:54;5.30;;;4.57;;
33824;SDS011;20127;48.962;8.342;2023-08-24T12:10:57;6.00;;;4.65;;
33824;SDS011;20127;48.962;8.342;2023-08-24T12:13:59;4.65;;;4.18;;
33824;SDS011;20127;48.962;8.342;2023-08-24T12:17:06;4.63;;;4.13;;
33824;SDS011;20127;48.962;8.342;2023-08-24T12:20:15;8.13;;;4.40;;
33824;SDS011;20127;48.962;8.342;2023-08-24T12:23:18;6.28;;;4.47;;
33824;SDS011;20127;48.962;8.342;2023-08-24T12:26:21;9.50;;;4.68;;
33824;SDS011;20127;48.962;8.342;2023-08-24T12:29:23;5.03;;;3.67;;
33824;SDS011;20127;48.962;8.342;2023-08-24T12:32:25;5.07;;;3.58;;
33824;SDS011;20127;48.962;8.342;2023-08-24T12:35:30;6.13;;;4.22;;
33824;SDS011;20127;48.962;8.342;2023-08-24T12:38:32;7.82;;;4.15;;
33824;SDS011;20127;48.962;8.342;2023-08-24T12:41:36;4.28;;;3.75;;
33824;SDS011;20127;48.962;8.342;2023-08-24T12:44:37;9.63;;;4.35;;
33824;SDS011;20127;48.962;8.342;2023-08-24T12:47:39;7.25;;;4.80;;
33824;SDS011;20127;48.962;8.342;2023-08-24T12:50:41;7.20;;;4.47;;
33824;SDS011;20127;48.962;8.342;2023-08-24T12:53:42;8.55;;;4.32;;
33824;SDS011;20127;48.962;8.342;2023-08-24T12:56:45;7.22;;;4.85;;
33824;SDS011;20127;48.962;8.342;2023-08-24T12:59:47;11.00;;;5.20;;
33824;SDS011;20127;48.962;8.342;2023-08-24T13:02:49;6.93;;;4.35;;
33824;SDS011;20127;48.962;8.342;2023-08-24T13:05:51;10.07;;;5.53;;
33824;SDS011;20127;48.962;8.342;2023-08-24T13:08:53;6.88;;;4.60;;
33824;SDS011;20127;48.962;8.342;2023-08-24T13:11:56;8.35;;;4.78;;
33824;SDS011;20127;48.962;8.342;2023-08-24T13:14:58;5.22;;;3.40;;
33824;SDS011;20127;48.962;8.342;2023-08-24T13:17:59;5.85;;;4.60;;
33824;SDS011;20127;48.962;8.342;2023-08-24T13:21:01;6.65;;;4.57;;
33824;SDS011;20127;48.962;8.342;2023-08-24T13:24:03;7.15;;;4.78;;
33824;SDS011;20127;48.962;8.342;2023-08-24T13:27:06;6.25;;;4.72;;
33824;SDS011;20127;48.962;8.342;2023-08-24T13:30:10;5.43;;;4.93;;
33824;SDS011;20127;48.962;8.342;2023-08-24T13:33:13;12.27;;;4.47;;
33824;SDS011;20127;48.962;8.342;2023-08-24T13:36:15;4.97;;;4.15;;
33824;SDS011;20127;48.962;8.342;2023-08-24T13:39:17;11.05;;;4.38;;
33824;SDS011;20127;48.962;8.342;2023-08-24T13:42:20;8.43;;;4.40;;
33824;SDS011;20127;48.962;8.342;2023-08-24T13:45:21;4.47;;;3.83;;
33824;SDS011;20127;48.962;8.342;2023-08-24T13:48:23;4.55;;;4.13;;
33824;SDS011;20127;48.962;8.342;2023-08-24T13:51:25;5.50;;;4.68;;
33824;SDS011;20127;48.962;8.342;2023-08-24T13:54:26;5.45;;;4.32;;
33824;SDS011;20127;48.962;8.342;2023-08-24T13:57:29;5.28;;;4.30;;
33824;SDS011;20127;48.962;8.342;2023-08-24T14:00:31;8.20;;;4.85;;
33824;SDS011;20127;48.962;8.342;2023-08-24T14:03:33;10.00;;;5.20;;
33824;SDS011;20127;48.962;8.342;2023-08-24T14:06:34;7.57;;;5.00;;
33824;SDS011;20127;48.962;8.342;2023-08-24T14:09:36;12.65;;;5.60;;
33824;SDS011;20127;48.962;8.342;2023-08-24T14:12:39;11.63;;;5.38;;
33824;SDS011;20127;48.962;8.342;2023-08-24T14:15:41;10.55;;;7.13;;
33824;SDS011;20127;48.962;8.342;2023-08-24T14:18:43;7.00;;;6.40;;
33824;SDS011;20127;48.962;8.342;2023-08-24T14:21:46;10.95;;;7.82;;
33824;SDS011;20127;48.962;8.342;2023-08-24T14:25:44;16.95;;;9.75;;
33824;SDS011;20127;48.962;8.342;2023-08-24T14:40:29;11.10;;;9.93;;
33824;SDS011;20127;48.962;8.342;2023-08-24T14:43:52;11.40;;;10.35;;
33824;SDS011;20127;48.962;8.342;2023-08-24T14:46:53;11.98;;;10.70;;
33824;SDS011;20127;48.962;8.342;2023-08-24T14:49:56;12.00;;;10.85;;
33824;SDS011;20127;48.962;8.342;2023-08-24T14:52:58;14.38;;;11.48;;
33824;SDS011;20127;48.962;8.342;2023-08-24T14:56:00;11.73;;;8.68;;
33824;SDS011;20127;48.962;8.342;2023-08-24T14:59:02;14.57;;;11.18;;
33824;SDS011;20127;48.962;8.342;2023-08-24T15:02:04;14.88;;;12.30;;
33824;SDS011;20127;48.962;8.342;2023-08-24T15:05:08;11.55;;;10.43;;
33824;SDS011;20127;48.962;8.342;2023-08-24T15:08:10;10.50;;;9.35;;
33824;SDS011;20127;48.962;8.342;2023-08-24T15:11:13;10.15;;;8.88;;
33824;SDS011;20127;48.962;8.342;2023-08-24T15:14:16;10.32;;;9.43;;
33824;SDS011;20127;48.962;8.342;2023-08-24T15:17:18;9.05;;;8.23;;
33824;SDS011;20127;48.962;8.342;2023-08-24T15:20:21;8.88;;;7.65;;
33824;SDS011;20127;48.962;8.342;2023-08-24T15:23:23;11.43;;;7.80;;
33824;SDS011;20127;48.962;8.342;2023-08-24T15:26:25;7.95;;;7.30;;
33824;SDS011;20127;48.962;8.342;2023-08-24T15:29:27;9.43;;;7.93;;
33824;SDS011;20127;48.962;8.342;2023-08-24T15:32:29;11.23;;;7.28;;
33824;SDS011;20127;48.962;8.342;2023-08-24T15:35:33;9.98;;;7.75;;
33824;SDS011;20127;48.962;8.342;2023-08-24T15:38:35;11.13;;;7.55;;
33824;SDS011;20127;48.962;8.342;2023-08-24T15:41:36;10.05;;;8.48;;
33824;SDS011;20127;48.962;8.342;2023-08-24T15:44:38;8.00;;;7.35;;
33824;SDS011;20127;48.962;8.342;2023-08-24T15:47:40;9.35;;;8.35;;
33824;SDS011;20127;48.962;8.342;2023-08-24T15:50:43;13.90;;;8.45;;
33824;SDS011;20127;48.962;8.342;2023-08-24T15:53:44;10.50;;;7.78;;
33824;SDS011;20127;48.962;8.342;2023-08-24T15:56:46;8.60;;;7.90;;
33824;SDS011;20127;48.962;8.342;2023-08-24T15:59:48;7.32;;;6.70;;
33824;SDS011;20127;48.962;8.342;2023-08-24T16:02:50;8.45;;;7.50;;
33824;SDS011;20127;48.962;8.342;2023-08-24T16:05:56;7.63;;;6.95;;
33824;SDS011;20127;48.962;8.342;2023-08-24T16:08:58;7.95;;;7.10;;
33824;SDS011;20127;48.962;8.342;2023-08-24T16:12:00;7.63;;;6.97;;
33824;SDS011;20127;48.962;8.342;2023-08-24T16:15:02;9.75;;;6.72;;
33824;SDS011;20127;48.962;8.342;2023-08-24T16:18:04;7.20;;;6.55;;
33824;SDS011;20127;48.962;8.342;2023-08-24T16:21:07;8.43;;;7.43;;
33824;SDS011;20127;48.962;8.342;2023-08-24T16:24:09;7.82;;;6.80;;
33824;SDS011;20127;48.962;8.342;2023-08-24T16:27:11;12.38;;;6.88;;
33824;SDS011;20127;48.962;8.342;2023-08-24T16:30:13;8.77;;;8.07;;
33824;SDS011;20127;48.962;8.342;2023-08-24T16:33:16;7.93;;;7.30;;
33824;SDS011;20127;48.962;8.342;2023-08-24T16:36:20;7.93;;;6.32;;
33824;SDS011;20127;48.962;8.342;2023-08-24T16:39:22;7.30;;;6.70;;
33824;SDS011;20127;48.962;8.342;2023-08-24T16:42:23;7.95;;;7.10;;
33824;SDS011;20127;48.962;8.342;2023-08-24T16:45:25;7.63;;;6.72;;
33824;SDS011;20127;48.962;8.342;2023-08-24T16:48:27;13.02;;;7.15;;
33824;SDS011;20127;48.962;8.342;2023-08-24T16:51:30;10.80;;;7.45;;
33824;SDS011;20127;48.962;8.342;2023-08-24T16:54:31;10.18;;;7.95;;
33824;SDS011;20127;48.962;8.342;2023-08-24T16:57:33;12.50;;;9.07;;
33824;SDS011;20127;48.962;8.342;2023-08-24T17:00:35;10.23;;;8.75;;
33824;SDS011;20127;48.962;8.342;2023-08-24T17:03:37;10.82;;;8.43;;
33824;SDS011;20127;48.962;8.342;2023-08-24T17:06:40;10.50;;;9.35;;
33824;SDS011;20127;48.962;8.342;2023-08-24T17:09:41;10.13;;;8.98;;
33824;SDS011;20127;48.962;8.342;2023-08-24T17:12:44;10.23;;;9.13;;
33824;SDS011;20127;48.962;8.342;2023-08-24T17:15:47;12.63;;;9.85;;
33824;SDS011;20127;48.962;8.342;2023-08-24T17:18:49;15.05;;;9.32;;
33824;SDS011;20127;48.962;8.342;2023-08-24T17:21:52;10.43;;;8.70;;
33824;SDS011;20127;48.962;8.342;2023-08-24T17:24:54;10.60;;;8.27;;
33824;SDS011;20127;48.962;8.342;2023-08-24T17:27:56;10.80;;;9.50;;
33824;SDS011;20127;48.962;8.342;2023-08-24T17:30:58;9.10;;;8.20;;
33824;SDS011;20127;48.962;8.342;2023-08-24T17:34:00;9.07;;;8.13;;
33824;SDS011;20127;48.962;8.342;2023-08-24T17:37:05;10.75;;;7.95;;
33824;SDS011;20127;48.962;8.342;2023-08-24T17:40:07;8.85;;;8.15;;
33824;SDS011;20127;48.962;8.342;2023-08-24T17:43:10;7.97;;;7.20;;
33824;SDS011;20127;48.962;8.342;2023-08-24T17:46:12;11.50;;;8.15;;
33824;SDS011;20127;48.962;8.342;2023-08-24T17:49:13;9.55;;;7.95;;
33824;SDS011;20127;48.962;8.342;2023-08-24T17:52:16;11.38;;;8.73;;
33824;SDS011;20127;48.962;8.342;2023-08-24T17:55:18;8.80;;;8.10;;
33824;SDS011;20127;48.962;8.342;2023-08-24T17:58:20;11.77;;;9.35;;
33824;SDS011;20127;48.962;8.342;2023-08-24T18:01:22;15.80;;;11.75;;
33824;SDS011;20127;48.962;8.342;2023-08-24T18:04:23;12.63;;;10.50;;
33824;SDS011;20127;48.962;8.342;2023-08-24T18:07:26;23.25;;;13.63;;
33824;SDS011;20127;48.962;8.342;2023-08-24T18:10:28;15.60;;;11.15;;
33824;SDS011;20127;48.962;8.342;2023-08-24T18:13:30;10.20;;;8.60;;
33824;SDS011;20127;48.962;8.342;2023-08-24T18:16:32;15.77;;;10.40;;
33824;SDS011;20127;48.962;8.342;2023-08-24T18:19:35;15.10;;;10.77;;
33824;SDS011;20127;48.962;8.342;2023-08-24T18:22:38;14.77;;;10.88;;
33824;SDS011;20127;48.962;8.342;2023-08-24T18:25:40;17.38;;;12.45;;
33824;SDS011;20127;48.962;8.342;2023-08-24T18:28:42;18.67;;;15.00;;
33824;SDS011;20127;48.962;8.342;2023-08-24T18:31:44;19.60;;;14.32;;
33824;SDS011;20127;48.962;8.342;2023-08-24T18:34:45;21.92;;;16.75;;
33824;SDS011;20127;48.962;8.342;2023-08-24T18:37:48;17.63;;;15.93;;
33824;SDS011;20127;48.962;8.342;2023-08-24T18:40:50;17.20;;;15.05;;